Terminal Aerodrome Forecast
Issued by NWS Quad Cities IA IL

Home | Current Version | Previous Version | Text Only | Print | Product List | Glossary On
Versions: 1 2 3 4 5 6 7 8 9 10 11 12 13 14 15 16 17 18 19
000
FTUS43 KDVN 250902 AAB
TAFDBQ
TAF AMD
KDBQ 250902Z 2509/2606 11007KT 4SM BR SCT008 BKN150
     FM251300 14008KT 6SM BR VCSH SCT025 BKN050
     FM251600 22010KT P6SM SCT015 BKN030
     FM252100 27012G18KT P6SM SCT025 BKN035=

USA.gov is the U.S. government's official web portal to all federal, state and local government web resources and services.